sensor_id;sensor_type;location;lat;lon;timestamp;P1;durP1;ratioP1;P2;durP2;ratioP2
50671;SDS011;46021;55.882;37.654;2023-09-19T00:00:19;20.98;;;13.70;;
50671;SDS011;46021;55.882;37.654;2023-09-19T00:02:51;18.33;;;11.75;;
50671;SDS011;46021;55.882;37.654;2023-09-19T00:05:19;21.08;;;11.73;;
50671;SDS011;46021;55.882;37.654;2023-09-19T00:07:50;19.40;;;10.32;;
50671;SDS011;46021;55.882;37.654;2023-09-19T00:10:20;15.82;;;11.00;;
50671;SDS011;46021;55.882;37.654;2023-09-19T00:12:51;16.77;;;11.05;;
50671;SDS011;46021;55.882;37.654;2023-09-19T00:15:20;15.77;;;9.50;;
50671;SDS011;46021;55.882;37.654;2023-09-19T00:17:48;19.17;;;10.35;;
50671;SDS011;46021;55.882;37.654;2023-09-19T00:20:17;17.33;;;9.43;;
50671;SDS011;46021;55.882;37.654;2023-09-19T00:22:46;19.33;;;10.80;;
50671;SDS011;46021;55.882;37.654;2023-09-19T00:25:14;15.00;;;9.80;;
50671;SDS011;46021;55.882;37.654;2023-09-19T00:27:41;11.93;;;5.40;;
50671;SDS011;46021;55.882;37.654;2023-09-19T00:30:12;16.95;;;9.60;;
50671;SDS011;46021;55.882;37.654;2023-09-19T00:32:45;14.32;;;9.93;;
50671;SDS011;46021;55.882;37.654;2023-09-19T00:35:14;14.32;;;9.00;;
50671;SDS011;46021;55.882;37.654;2023-09-19T00:37:41;13.95;;;9.00;;
50671;SDS011;46021;55.882;37.654;2023-09-19T00:40:09;14.73;;;9.00;;
50671;SDS011;46021;55.882;37.654;2023-09-19T00:42:38;14.88;;;8.90;;
50671;SDS011;46021;55.882;37.654;2023-09-19T00:45:06;15.07;;;9.40;;
50671;SDS011;46021;55.882;37.654;2023-09-19T00:47:38;14.52;;;8.93;;
50671;SDS011;46021;55.882;37.654;2023-09-19T00:50:06;15.60;;;9.13;;
50671;SDS011;46021;55.882;37.654;2023-09-19T00:52:36;11.95;;;8.20;;
50671;SDS011;46021;55.882;37.654;2023-09-19T00:55:06;11.50;;;8.43;;
50671;SDS011;46021;55.882;37.654;2023-09-19T00:57:34;13.10;;;8.25;;
50671;SDS011;46021;55.882;37.654;2023-09-19T01:00:02;12.85;;;7.90;;
50671;SDS011;46021;55.882;37.654;2023-09-19T01:02:32;12.05;;;8.30;;
50671;SDS011;46021;55.882;37.654;2023-09-19T01:05:01;14.02;;;8.65;;
50671;SDS011;46021;55.882;37.654;2023-09-19T01:07:31;12.23;;;8.23;;
50671;SDS011;46021;55.882;37.654;2023-09-19T01:10:00;13.98;;;8.05;;
50671;SDS011;46021;55.882;37.654;2023-09-19T01:12:33;12.90;;;8.27;;
50671;SDS011;46021;55.882;37.654;2023-09-19T01:15:08;12.93;;;8.07;;
50671;SDS011;46021;55.882;37.654;2023-09-19T01:17:44;12.57;;;8.48;;
50671;SDS011;46021;55.882;37.654;2023-09-19T01:20:23;15.18;;;9.15;;
50671;SDS011;46021;55.882;37.654;2023-09-19T01:23:04;14.02;;;8.57;;
50671;SDS011;46021;55.882;37.654;2023-09-19T01:25:54;15.35;;;9.18;;
50671;SDS011;46021;55.882;37.654;2023-09-19T01:28:45;17.17;;;8.25;;
50671;SDS011;46021;55.882;37.654;2023-09-19T01:31:22;12.77;;;8.57;;
50671;SDS011;46021;55.882;37.654;2023-09-19T01:33:54;13.10;;;7.75;;
50671;SDS011;46021;55.882;37.654;2023-09-19T01:36:26;13.23;;;9.10;;
50671;SDS011;46021;55.882;37.654;2023-09-19T01:38:55;13.00;;;8.85;;
50671;SDS011;46021;55.882;37.654;2023-09-19T01:44:36;18.35;;;9.15;;
50671;SDS011;46021;55.882;37.654;2023-09-19T01:47:15;14.73;;;8.88;;
50671;SDS011;46021;55.882;37.654;2023-09-19T01:49:50;15.73;;;9.38;;
50671;SDS011;46021;55.882;37.654;2023-09-19T01:52:24;15.77;;;9.73;;
50671;SDS011;46021;55.882;37.654;2023-09-19T01:54:55;13.77;;;9.30;;
50671;SDS011;46021;55.882;37.654;2023-09-19T01:57:31;15.02;;;9.15;;
50671;SDS011;46021;55.882;37.654;2023-09-19T02:00:07;12.85;;;9.30;;
50671;SDS011;46021;55.882;37.654;2023-09-19T02:02:42;13.15;;;9.13;;
50671;SDS011;46021;55.882;37.654;2023-09-19T02:05:13;15.25;;;9.00;;
50671;SDS011;46021;55.882;37.654;2023-09-19T02:07:40;13.63;;;8.93;;
50671;SDS011;46021;55.882;37.654;2023-09-19T02:10:07;12.27;;;8.53;;
50671;SDS011;46021;55.882;37.654;2023-09-19T02:12:36;14.70;;;10.15;;
50671;SDS011;46021;55.882;37.654;2023-09-19T02:15:08;12.70;;;9.45;;
50671;SDS011;46021;55.882;37.654;2023-09-19T02:17:47;15.07;;;10.02;;
50671;SDS011;46021;55.882;37.654;2023-09-19T02:20:15;13.43;;;9.57;;
50671;SDS011;46021;55.882;37.654;2023-09-19T02:22:43;16.45;;;10.75;;
50671;SDS011;46021;55.882;37.654;2023-09-19T02:25:30;15.68;;;10.18;;
50671;SDS011;46021;55.882;37.654;2023-09-19T02:27:57;10.77;;;5.65;;
50671;SDS011;46021;55.882;37.654;2023-09-19T02:30:26;15.30;;;9.90;;
50671;SDS011;46021;55.882;37.654;2023-09-19T02:32:56;16.13;;;10.57;;
50671;SDS011;46021;55.882;37.654;2023-09-19T02:35:27;15.45;;;10.85;;
50671;SDS011;46021;55.882;37.654;2023-09-19T02:37:58;15.32;;;9.88;;
50671;SDS011;46021;55.882;37.654;2023-09-19T02:40:25;15.15;;;11.38;;
50671;SDS011;46021;55.882;37.654;2023-09-19T02:42:53;16.13;;;10.48;;
50671;SDS011;46021;55.882;37.654;2023-09-19T02:45:24;16.75;;;10.35;;
50671;SDS011;46021;55.882;37.654;2023-09-19T02:47:51;21.15;;;11.45;;
50671;SDS011;46021;55.882;37.654;2023-09-19T02:50:19;9.50;;;5.23;;
50671;SDS011;46021;55.882;37.654;2023-09-19T02:52:46;16.23;;;9.57;;
50671;SDS011;46021;55.882;37.654;2023-09-19T02:57:45;17.02;;;10.75;;
50671;SDS011;46021;55.882;37.654;2023-09-19T03:00:13;16.15;;;10.07;;
50671;SDS011;46021;55.882;37.654;2023-09-19T03:02:40;14.70;;;9.82;;
50671;SDS011;46021;55.882;37.654;2023-09-19T03:05:08;14.30;;;10.55;;
50671;SDS011;46021;55.882;37.654;2023-09-19T03:07:39;18.55;;;9.82;;
50671;SDS011;46021;55.882;37.654;2023-09-19T03:10:08;13.85;;;9.05;;
50671;SDS011;46021;55.882;37.654;2023-09-19T03:12:36;14.02;;;9.48;;
50671;SDS011;46021;55.882;37.654;2023-09-19T03:15:04;14.07;;;8.93;;
50671;SDS011;46021;55.882;37.654;2023-09-19T03:17:33;12.50;;;8.32;;
50671;SDS011;46021;55.882;37.654;2023-09-19T03:20:02;12.13;;;7.90;;
50671;SDS011;46021;55.882;37.654;2023-09-19T03:22:30;11.77;;;8.23;;
50671;SDS011;46021;55.882;37.654;2023-09-19T03:27:27;11.05;;;7.70;;
50671;SDS011;46021;55.882;37.654;2023-09-19T03:29:54;7.00;;;4.47;;
50671;SDS011;46021;55.882;37.654;2023-09-19T03:32:21;12.90;;;7.73;;
50671;SDS011;46021;55.882;37.654;2023-09-19T03:34:49;11.35;;;7.63;;
50671;SDS011;46021;55.882;37.654;2023-09-19T03:37:16;9.93;;;7.47;;
50671;SDS011;46021;55.882;37.654;2023-09-19T03:39:43;11.50;;;6.80;;
50671;SDS011;46021;55.882;37.654;2023-09-19T03:42:12;9.65;;;6.55;;
50671;SDS011;46021;55.882;37.654;2023-09-19T03:44:39;11.63;;;6.63;;
50671;SDS011;46021;55.882;37.654;2023-09-19T03:47:06;11.07;;;7.22;;
50671;SDS011;46021;55.882;37.654;2023-09-19T03:49:34;9.65;;;6.57;;
50671;SDS011;46021;55.882;37.654;2023-09-19T03:54:29;8.32;;;5.88;;
50671;SDS011;46021;55.882;37.654;2023-09-19T03:56:56;8.25;;;4.45;;
50671;SDS011;46021;55.882;37.654;2023-09-19T03:59:25;10.47;;;5.90;;
50671;SDS011;46021;55.882;37.654;2023-09-19T04:01:52;10.65;;;6.32;;
50671;SDS011;46021;55.882;37.654;2023-09-19T04:04:22;9.60;;;6.30;;
50671;SDS011;46021;55.882;37.654;2023-09-19T04:09:18;13.18;;;6.63;;
50671;SDS011;46021;55.882;37.654;2023-09-19T04:11:45;8.43;;;5.75;;
50671;SDS011;46021;55.882;37.654;2023-09-19T04:14:12;8.53;;;6.07;;
50671;SDS011;46021;55.882;37.654;2023-09-19T04:16:41;9.57;;;6.72;;
50671;SDS011;46021;55.882;37.654;2023-09-19T04:19:08;7.97;;;5.82;;
50671;SDS011;46021;55.882;37.654;2023-09-19T04:21:35;9.35;;;6.18;;
50671;SDS011;46021;55.882;37.654;2023-09-19T04:24:02;10.00;;;6.43;;
50671;SDS011;46021;55.882;37.654;2023-09-19T04:26:30;11.98;;;7.00;;
50671;SDS011;46021;55.882;37.654;2023-09-19T04:28:58;9.77;;;6.75;;
50671;SDS011;46021;55.882;37.654;2023-09-19T04:31:26;11.70;;;6.32;;
50671;SDS011;46021;55.882;37.654;2023-09-19T04:33:54;9.87;;;6.43;;
50671;SDS011;46021;55.882;37.654;2023-09-19T04:36:22;8.18;;;6.30;;
50671;SDS011;46021;55.882;37.654;2023-09-19T04:38:49;12.73;;;6.53;;
50671;SDS011;46021;55.882;37.654;2023-09-19T04:41:16;10.45;;;6.18;;
50671;SDS011;46021;55.882;37.654;2023-09-19T04:43:43;8.38;;;6.40;;
50671;SDS011;46021;55.882;37.654;2023-09-19T04:46:10;11.13;;;6.78;;
50671;SDS011;46021;55.882;37.654;2023-09-19T04:48:39;13.02;;;7.53;;
50671;SDS011;46021;55.882;37.654;2023-09-19T04:51:08;10.82;;;6.22;;
50671;SDS011;46021;55.882;37.654;2023-09-19T04:53:36;15.45;;;7.50;;
50671;SDS011;46021;55.882;37.654;2023-09-19T04:56:03;10.00;;;6.88;;
50671;SDS011;46021;55.882;37.654;2023-09-19T04:58:32;13.38;;;8.75;;
50671;SDS011;46021;55.882;37.654;2023-09-19T05:00:59;13.27;;;6.45;;
50671;SDS011;46021;55.882;37.654;2023-09-19T05:03:29;11.90;;;6.88;;
50671;SDS011;46021;55.882;37.654;2023-09-19T05:05:56;9.20;;;6.78;;
50671;SDS011;46021;55.882;37.654;2023-09-19T05:08:25;10.13;;;6.30;;
50671;SDS011;46021;55.882;37.654;2023-09-19T05:10:53;11.45;;;6.85;;
50671;SDS011;46021;55.882;37.654;2023-09-19T05:15:48;12.38;;;7.03;;
50671;SDS011;46021;55.882;37.654;2023-09-19T05:18:15;12.65;;;7.55;;
50671;SDS011;46021;55.882;37.654;2023-09-19T05:20:42;10.40;;;7.27;;
50671;SDS011;46021;55.882;37.654;2023-09-19T05:23:09;13.13;;;7.93;;
50671;SDS011;46021;55.882;37.654;2023-09-19T05:25:39;14.98;;;8.05;;
50671;SDS011;46021;55.882;37.654;2023-09-19T05:28:09;12.10;;;7.38;;
50671;SDS011;46021;55.882;37.654;2023-09-19T05:30:40;14.35;;;7.70;;
50671;SDS011;46021;55.882;37.654;2023-09-19T05:33:08;13.43;;;7.35;;
50671;SDS011;46021;55.882;37.654;2023-09-19T05:35:36;16.13;;;8.80;;
50671;SDS011;46021;55.882;37.654;2023-09-19T05:38:07;12.70;;;8.13;;
50671;SDS011;46021;55.882;37.654;2023-09-19T05:40:37;14.88;;;8.00;;
50671;SDS011;46021;55.882;37.654;2023-09-19T05:43:08;12.52;;;7.78;;
50671;SDS011;46021;55.882;37.654;2023-09-19T05:45:35;12.75;;;7.50;;
50671;SDS011;46021;55.882;37.654;2023-09-19T05:48:12;13.27;;;7.43;;
50671;SDS011;46021;55.882;37.654;2023-09-19T05:50:41;12.50;;;8.02;;
50671;SDS011;46021;55.882;37.654;2023-09-19T05:53:12;15.32;;;8.23;;
50671;SDS011;46021;55.882;37.654;2023-09-19T05:55:40;20.13;;;8.73;;
50671;SDS011;46021;55.882;37.654;2023-09-19T05:58:08;21.50;;;12.45;;
50671;SDS011;46021;55.882;37.654;2023-09-19T06:00:39;17.38;;;9.30;;
50671;SDS011;46021;55.882;37.654;2023-09-19T06:03:08;13.98;;;8.40;;
50671;SDS011;46021;55.882;37.654;2023-09-19T06:05:35;14.27;;;7.67;;
50671;SDS011;46021;55.882;37.654;2023-09-19T06:08:06;11.45;;;7.30;;
50671;SDS011;46021;55.882;37.654;2023-09-19T06:10:34;14.15;;;7.85;;
50671;SDS011;46021;55.882;37.654;2023-09-19T06:13:02;13.88;;;7.65;;
50671;SDS011;46021;55.882;37.654;2023-09-19T06:15:33;13.55;;;7.45;;
50671;SDS011;46021;55.882;37.654;2023-09-19T06:18:01;13.20;;;8.63;;
50671;SDS011;46021;55.882;37.654;2023-09-19T06:20:30;20.55;;;8.93;;
50671;SDS011;46021;55.882;37.654;2023-09-19T06:22:58;13.80;;;8.25;;
50671;SDS011;46021;55.882;37.654;2023-09-19T06:25:27;13.75;;;8.57;;
50671;SDS011;46021;55.882;37.654;2023-09-19T06:27:54;23.33;;;13.87;;
50671;SDS011;46021;55.882;37.654;2023-09-19T06:32:51;13.43;;;8.82;;
50671;SDS011;46021;55.882;37.654;2023-09-19T06:35:22;14.35;;;8.98;;
50671;SDS011;46021;55.882;37.654;2023-09-19T06:37:51;18.92;;;10.02;;
50671;SDS011;46021;55.882;37.654;2023-09-19T06:40:19;13.75;;;9.32;;
50671;SDS011;46021;55.882;37.654;2023-09-19T06:42:46;13.88;;;9.95;;
50671;SDS011;46021;55.882;37.654;2023-09-19T06:45:17;18.33;;;9.60;;
50671;SDS011;46021;55.882;37.654;2023-09-19T06:50:16;16.05;;;9.63;;
50671;SDS011;46021;55.882;37.654;2023-09-19T06:52:44;24.48;;;9.68;;
50671;SDS011;46021;55.882;37.654;2023-09-19T06:55:12;12.35;;;9.25;;
50671;SDS011;46021;55.882;37.654;2023-09-19T06:57:41;15.60;;;9.07;;
50671;SDS011;46021;55.882;37.654;2023-09-19T07:00:09;13.50;;;8.75;;
50671;SDS011;46021;55.882;37.654;2023-09-19T07:02:43;17.05;;;9.20;;
50671;SDS011;46021;55.882;37.654;2023-09-19T07:05:10;14.00;;;9.52;;
50671;SDS011;46021;55.882;37.654;2023-09-19T07:07:39;19.92;;;10.05;;
50671;SDS011;46021;55.882;37.654;2023-09-19T07:10:06;13.77;;;8.95;;
50671;SDS011;46021;55.882;37.654;2023-09-19T07:12:36;15.10;;;10.35;;
50671;SDS011;46021;55.882;37.654;2023-09-19T07:15:04;20.03;;;12.90;;
50671;SDS011;46021;55.882;37.654;2023-09-19T07:17:32;15.38;;;9.98;;
50671;SDS011;46021;55.882;37.654;2023-09-19T07:19:59;16.25;;;9.40;;
50671;SDS011;46021;55.882;37.654;2023-09-19T07:22:27;23.02;;;11.02;;
50671;SDS011;46021;55.882;37.654;2023-09-19T07:27:23;17.63;;;10.02;;
50671;SDS011;46021;55.882;37.654;2023-09-19T07:29:50;16.30;;;9.77;;
50671;SDS011;46021;55.882;37.654;2023-09-19T07:32:17;15.57;;;9.80;;
50671;SDS011;46021;55.882;37.654;2023-09-19T07:34:45;17.50;;;9.15;;
50671;SDS011;46021;55.882;37.654;2023-09-19T07:37:12;13.55;;;9.70;;
50671;SDS011;46021;55.882;37.654;2023-09-19T07:39:41;17.70;;;10.40;;
50671;SDS011;46021;55.882;37.654;2023-09-19T07:42:10;18.15;;;10.18;;
50671;SDS011;46021;55.882;37.654;2023-09-19T07:44:43;19.75;;;10.57;;
50671;SDS011;46021;55.882;37.654;2023-09-19T07:47:13;19.23;;;10.00;;
50671;SDS011;46021;55.882;37.654;2023-09-19T07:49:40;14.48;;;10.75;;
50671;SDS011;46021;55.882;37.654;2023-09-19T07:54:34;24.52;;;10.85;;
50671;SDS011;46021;55.882;37.654;2023-09-19T07:57:02;17.75;;;10.00;;
50671;SDS011;46021;55.882;37.654;2023-09-19T07:59:31;16.95;;;10.40;;
50671;SDS011;46021;55.882;37.654;2023-09-19T08:01:58;18.25;;;10.50;;
50671;SDS011;46021;55.882;37.654;2023-09-19T08:04:26;19.05;;;9.95;;
50671;SDS011;46021;55.882;37.654;2023-09-19T08:06:56;17.98;;;10.05;;
50671;SDS011;46021;55.882;37.654;2023-09-19T08:09:25;16.25;;;9.10;;
50671;SDS011;46021;55.882;37.654;2023-09-19T08:11:54;14.20;;;9.90;;
50671;SDS011;46021;55.882;37.654;2023-09-19T08:14:22;14.88;;;9.50;;
50671;SDS011;46021;55.882;37.654;2023-09-19T08:16:52;14.10;;;10.32;;
50671;SDS011;46021;55.882;37.654;2023-09-19T08:19:23;15.70;;;9.80;;
50671;SDS011;46021;55.882;37.654;2023-09-19T08:21:54;15.02;;;10.38;;
50671;SDS011;46021;55.882;37.654;2023-09-19T08:24:24;14.25;;;9.32;;
50671;SDS011;46021;55.882;37.654;2023-09-19T08:26:52;18.45;;;10.55;;
50671;SDS011;46021;55.882;37.654;2023-09-19T08:29:21;18.00;;;11.35;;
50671;SDS011;46021;55.882;37.654;2023-09-19T08:31:55;16.27;;;9.93;;
50671;SDS011;46021;55.882;37.654;2023-09-19T08:34:22;17.02;;;10.45;;
50671;SDS011;46021;55.882;37.654;2023-09-19T08:36:50;15.45;;;9.00;;
50671;SDS011;46021;55.882;37.654;2023-09-19T08:39:22;14.95;;;10.75;;
50671;SDS011;46021;55.882;37.654;2023-09-19T08:41:49;25.65;;;12.13;;
50671;SDS011;46021;55.882;37.654;2023-09-19T08:44:16;13.85;;;9.75;;
50671;SDS011;46021;55.882;37.654;2023-09-19T08:46:44;18.45;;;10.88;;
50671;SDS011;46021;55.882;37.654;2023-09-19T08:51:47;17.20;;;10.98;;
50671;SDS011;46021;55.882;37.654;2023-09-19T08:54:22;16.02;;;10.32;;
50671;SDS011;46021;55.882;37.654;2023-09-19T08:56:52;17.58;;;11.02;;
50671;SDS011;46021;55.882;37.654;2023-09-19T08:59:21;17.70;;;10.25;;
50671;SDS011;46021;55.882;37.654;2023-09-19T09:01:54;17.05;;;9.60;;
50671;SDS011;46021;55.882;37.654;2023-09-19T09:04:23;14.93;;;10.02;;
50671;SDS011;46021;55.882;37.654;2023-09-19T09:06:51;18.25;;;9.82;;
50671;SDS011;46021;55.882;37.654;2023-09-19T09:09:20;16.65;;;10.75;;
50671;SDS011;46021;55.882;37.654;2023-09-19T09:11:48;16.10;;;9.90;;
50671;SDS011;46021;55.882;37.654;2023-09-19T09:14:18;17.40;;;10.13;;
50671;SDS011;46021;55.882;37.654;2023-09-19T09:16:47;18.38;;;10.10;;
50671;SDS011;46021;55.882;37.654;2023-09-19T09:19:15;17.85;;;9.93;;
50671;SDS011;46021;55.882;37.654;2023-09-19T09:21:51;17.10;;;9.75;;
50671;SDS011;46021;55.882;37.654;2023-09-19T09:24:27;16.27;;;10.07;;
50671;SDS011;46021;55.882;37.654;2023-09-19T09:26:55;15.17;;;9.50;;
50671;SDS011;46021;55.882;37.654;2023-09-19T09:32:18;19.00;;;9.90;;
50671;SDS011;46021;55.882;37.654;2023-09-19T09:34:46;19.42;;;10.35;;
50671;SDS011;46021;55.882;37.654;2023-09-19T09:37:17;15.20;;;9.90;;
50671;SDS011;46021;55.882;37.654;2023-09-19T09:39:49;19.63;;;11.10;;
50671;SDS011;46021;55.882;37.654;2023-09-19T09:42:34;19.00;;;10.90;;
50671;SDS011;46021;55.882;37.654;2023-09-19T09:45:12;16.92;;;10.82;;
50671;SDS011;46021;55.882;37.654;2023-09-19T09:50:26;24.75;;;10.52;;
50671;SDS011;46021;55.882;37.654;2023-09-19T09:53:04;18.05;;;12.48;;
50671;SDS011;46021;55.882;37.654;2023-09-19T09:56:02;19.17;;;11.82;;
50671;SDS011;46021;55.882;37.654;2023-09-19T09:58:35;19.83;;;11.38;;
50671;SDS011;46021;55.882;37.654;2023-09-19T10:01:06;17.38;;;9.93;;
50671;SDS011;46021;55.882;37.654;2023-09-19T10:03:36;14.10;;;9.68;;
50671;SDS011;46021;55.882;37.654;2023-09-19T10:06:07;19.55;;;10.77;;
50671;SDS011;46021;55.882;37.654;2023-09-19T10:09:04;13.60;;;9.65;;
50671;SDS011;46021;55.882;37.654;2023-09-19T10:11:41;16.90;;;9.73;;
50671;SDS011;46021;55.882;37.654;2023-09-19T10:14:10;18.95;;;10.20;;
50671;SDS011;46021;55.882;37.654;2023-09-19T10:16:40;20.05;;;9.88;;
50671;SDS011;46021;55.882;37.654;2023-09-19T10:19:14;14.48;;;9.85;;
50671;SDS011;46021;55.882;37.654;2023-09-19T10:21:47;17.08;;;10.60;;
50671;SDS011;46021;55.882;37.654;2023-09-19T10:24:19;18.48;;;10.63;;
50671;SDS011;46021;55.882;37.654;2023-09-19T10:26:50;20.13;;;9.75;;
50671;SDS011;46021;55.882;37.654;2023-09-19T10:29:18;13.90;;;8.50;;
50671;SDS011;46021;55.882;37.654;2023-09-19T10:31:47;14.45;;;9.18;;
50671;SDS011;46021;55.882;37.654;2023-09-19T10:34:15;15.07;;;9.25;;
50671;SDS011;46021;55.882;37.654;2023-09-19T10:36:45;14.77;;;8.30;;
50671;SDS011;46021;55.882;37.654;2023-09-19T10:39:14;20.38;;;10.90;;
50671;SDS011;46021;55.882;37.654;2023-09-19T10:41:49;12.43;;;8.40;;
50671;SDS011;46021;55.882;37.654;2023-09-19T10:44:24;13.02;;;7.97;;
50671;SDS011;46021;55.882;37.654;2023-09-19T10:46:52;22.45;;;9.85;;
50671;SDS011;46021;55.882;37.654;2023-09-19T10:49:19;15.60;;;9.88;;
50671;SDS011;46021;55.882;37.654;2023-09-19T10:51:49;16.25;;;9.43;;
50671;SDS011;46021;55.882;37.654;2023-09-19T10:54:21;14.00;;;8.10;;
50671;SDS011;46021;55.882;37.654;2023-09-19T10:56:53;15.55;;;8.23;;
50671;SDS011;46021;55.882;37.654;2023-09-19T10:59:24;22.00;;;9.27;;
50671;SDS011;46021;55.882;37.654;2023-09-19T11:02:07;10.68;;;7.15;;
50671;SDS011;46021;55.882;37.654;2023-09-19T11:04:43;12.25;;;7.15;;
50671;SDS011;46021;55.882;37.654;2023-09-19T11:07:13;17.10;;;7.10;;
50671;SDS011;46021;55.882;37.654;2023-09-19T11:09:45;14.65;;;7.55;;
50671;SDS011;46021;55.882;37.654;2023-09-19T11:12:13;13.75;;;8.13;;
50671;SDS011;46021;55.882;37.654;2023-09-19T11:24:30;17.13;;;8.02;;
50671;SDS011;46021;55.882;37.654;2023-09-19T11:27:15;14.55;;;7.65;;
50671;SDS011;46021;55.882;37.654;2023-09-19T11:29:44;16.05;;;7.90;;
50671;SDS011;46021;55.882;37.654;2023-09-19T11:32:12;12.00;;;6.72;;
50671;SDS011;46021;55.882;37.654;2023-09-19T11:34:42;13.05;;;7.93;;
50671;SDS011;46021;55.882;37.654;2023-09-19T11:40:25;15.00;;;7.85;;
50671;SDS011;46021;55.882;37.654;2023-09-19T11:42:55;9.77;;;6.43;;
50671;SDS011;46021;55.882;37.654;2023-09-19T11:48:27;17.83;;;7.68;;
50671;SDS011;46021;55.882;37.654;2023-09-19T11:50:56;10.30;;;6.50;;
50671;SDS011;46021;55.882;37.654;2023-09-19T11:53:24;13.32;;;7.35;;
50671;SDS011;46021;55.882;37.654;2023-09-19T11:56:01;13.50;;;7.40;;
50671;SDS011;46021;55.882;37.654;2023-09-19T11:58:37;16.90;;;7.13;;
50671;SDS011;46021;55.882;37.654;2023-09-19T12:01:05;10.77;;;6.65;;
50671;SDS011;46021;55.882;37.654;2023-09-19T12:03:40;14.10;;;7.10;;
50671;SDS011;46021;55.882;37.654;2023-09-19T12:06:13;15.52;;;8.43;;
50671;SDS011;46021;55.882;37.654;2023-09-19T12:08:41;19.10;;;9.45;;
50671;SDS011;46021;55.882;37.654;2023-09-19T12:11:12;17.80;;;8.50;;
50671;SDS011;46021;55.882;37.654;2023-09-19T12:13:43;16.55;;;8.02;;
50671;SDS011;46021;55.882;37.654;2023-09-19T12:16:12;14.20;;;8.65;;
50671;SDS011;46021;55.882;37.654;2023-09-19T12:18:47;18.60;;;7.82;;
50671;SDS011;46021;55.882;37.654;2023-09-19T12:21:25;19.27;;;10.18;;
50671;SDS011;46021;55.882;37.654;2023-09-19T12:24:03;14.27;;;8.45;;
50671;SDS011;46021;55.882;37.654;2023-09-19T12:26:36;23.73;;;9.52;;
50671;SDS011;46021;55.882;37.654;2023-09-19T12:29:11;15.90;;;8.77;;
50671;SDS011;46021;55.882;37.654;2023-09-19T12:31:47;15.50;;;7.88;;
50671;SDS011;46021;55.882;37.654;2023-09-19T12:34:19;16.77;;;8.55;;
50671;SDS011;46021;55.882;37.654;2023-09-19T12:36:48;15.88;;;7.70;;
50671;SDS011;46021;55.882;37.654;2023-09-19T12:39:24;15.73;;;8.23;;
50671;SDS011;46021;55.882;37.654;2023-09-19T12:41:52;11.95;;;7.78;;
50671;SDS011;46021;55.882;37.654;2023-09-19T12:44:21;10.85;;;7.20;;
50671;SDS011;46021;55.882;37.654;2023-09-19T12:46:50;15.80;;;8.05;;
50671;SDS011;46021;55.882;37.654;2023-09-19T12:49:20;12.27;;;7.20;;
50671;SDS011;46021;55.882;37.654;2023-09-19T12:51:48;10.20;;;6.75;;
50671;SDS011;46021;55.882;37.654;2023-09-19T12:54:17;14.95;;;7.75;;
50671;SDS011;46021;55.882;37.654;2023-09-19T12:56:45;14.10;;;7.63;;
50671;SDS011;46021;55.882;37.654;2023-09-19T12:59:13;15.55;;;8.07;;
50671;SDS011;46021;55.882;37.654;2023-09-19T13:01:43;15.85;;;7.60;;
50671;SDS011;46021;55.882;37.654;2023-09-19T13:04:15;14.68;;;8.13;;
50671;SDS011;46021;55.882;37.654;2023-09-19T13:06:46;14.32;;;7.53;;
50671;SDS011;46021;55.882;37.654;2023-09-19T13:09:15;19.02;;;8.10;;
50671;SDS011;46021;55.882;37.654;2023-09-19T13:11:43;12.32;;;7.43;;
50671;SDS011;46021;55.882;37.654;2023-09-19T13:14:14;13.93;;;7.03;;
50671;SDS011;46021;55.882;37.654;2023-09-19T13:17:00;12.52;;;6.75;;
50671;SDS011;46021;55.882;37.654;2023-09-19T13:19:39;14.40;;;6.75;;
50671;SDS011;46021;55.882;37.654;2023-09-19T13:25:05;23.60;;;7.18;;
50671;SDS011;46021;55.882;37.654;2023-09-19T13:27:33;13.07;;;7.13;;
50671;SDS011;46021;55.882;37.654;2023-09-19T13:32:33;15.75;;;8.32;;
50671;SDS011;46021;55.882;37.654;2023-09-19T13:35:00;16.23;;;8.75;;
50671;SDS011;46021;55.882;37.654;2023-09-19T13:37:29;18.30;;;7.63;;
50671;SDS011;46021;55.882;37.654;2023-09-19T13:39:56;15.70;;;7.80;;
50671;SDS011;46021;55.882;37.654;2023-09-19T13:42:25;13.73;;;7.22;;
50671;SDS011;46021;55.882;37.654;2023-09-19T13:44:55;11.02;;;7.18;;
50671;SDS011;46021;55.882;37.654;2023-09-19T13:49:53;13.65;;;7.95;;
50671;SDS011;46021;55.882;37.654;2023-09-19T13:52:20;17.65;;;8.07;;
50671;SDS011;46021;55.882;37.654;2023-09-19T13:54:49;15.27;;;7.45;;
50671;SDS011;46021;55.882;37.654;2023-09-19T13:57:18;12.15;;;7.63;;
50671;SDS011;46021;55.882;37.654;2023-09-19T13:59:45;22.83;;;9.23;;
50671;SDS011;46021;55.882;37.654;2023-09-19T14:02:13;19.15;;;8.90;;
50671;SDS011;46021;55.882;37.654;2023-09-19T14:04:40;18.48;;;8.60;;
50671;SDS011;46021;55.882;37.654;2023-09-19T14:07:08;13.30;;;7.45;;
50671;SDS011;46021;55.882;37.654;2023-09-19T14:09:36;18.00;;;8.57;;
50671;SDS011;46021;55.882;37.654;2023-09-19T14:12:03;17.60;;;8.68;;
50671;SDS011;46021;55.882;37.654;2023-09-19T14:14:32;17.20;;;8.65;;
50671;SDS011;46021;55.882;37.654;2023-09-19T14:17:00;23.42;;;8.45;;
50671;SDS011;46021;55.882;37.654;2023-09-19T14:19:27;15.75;;;9.90;;
50671;SDS011;46021;55.882;37.654;2023-09-19T14:21:54;16.90;;;9.82;;
50671;SDS011;46021;55.882;37.654;2023-09-19T14:24:23;14.10;;;8.70;;
50671;SDS011;46021;55.882;37.654;2023-09-19T14:26:50;18.17;;;9.07;;
50671;SDS011;46021;55.882;37.654;2023-09-19T14:29:17;15.45;;;8.73;;
50671;SDS011;46021;55.882;37.654;2023-09-19T14:31:45;17.13;;;9.32;;
50671;SDS011;46021;55.882;37.654;2023-09-19T14:34:12;16.50;;;8.90;;
50671;SDS011;46021;55.882;37.654;2023-09-19T14:36:40;13.95;;;8.95;;
50671;SDS011;46021;55.882;37.654;2023-09-19T14:39:07;16.15;;;9.20;;
50671;SDS011;46021;55.882;37.654;2023-09-19T14:41:36;18.38;;;9.65;;
50671;SDS011;46021;55.882;37.654;2023-09-19T14:44:03;14.15;;;8.98;;
50671;SDS011;46021;55.882;37.654;2023-09-19T14:46:30;16.27;;;9.10;;
50671;SDS011;46021;55.882;37.654;2023-09-19T14:48:57;21.63;;;9.40;;
50671;SDS011;46021;55.882;37.654;2023-09-19T14:53:52;16.75;;;8.75;;
50671;SDS011;46021;55.882;37.654;2023-09-19T14:58:50;17.17;;;8.55;;
50671;SDS011;46021;55.882;37.654;2023-09-19T15:01:17;16.70;;;8.63;;
50671;SDS011;46021;55.882;37.654;2023-09-19T15:03:44;12.35;;;7.53;;
50671;SDS011;46021;55.882;37.654;2023-09-19T15:06:13;15.02;;;8.57;;
50671;SDS011;46021;55.882;37.654;2023-09-19T15:08:43;23.00;;;9.23;;
50671;SDS011;46021;55.882;37.654;2023-09-19T15:11:13;18.45;;;8.95;;
50671;SDS011;46021;55.882;37.654;2023-09-19T15:13:42;17.35;;;9.05;;
50671;SDS011;46021;55.882;37.654;2023-09-19T15:16:12;19.23;;;10.30;;
50671;SDS011;46021;55.882;37.654;2023-09-19T15:18:40;20.50;;;9.98;;
50671;SDS011;46021;55.882;37.654;2023-09-19T15:21:08;18.30;;;9.88;;
50671;SDS011;46021;55.882;37.654;2023-09-19T15:23:37;17.17;;;9.68;;
50671;SDS011;46021;55.882;37.654;2023-09-19T15:26:05;20.33;;;9.38;;
50671;SDS011;46021;55.882;37.654;2023-09-19T15:28:33;19.90;;;9.75;;
50671;SDS011;46021;55.882;37.654;2023-09-19T15:31:02;19.45;;;9.88;;
50671;SDS011;46021;55.882;37.654;2023-09-19T15:33:33;25.27;;;11.02;;
50671;SDS011;46021;55.882;37.654;2023-09-19T15:36:02;15.15;;;9.75;;